Time;durP1;ratioP1;P1;durP2;ratioP2;P2;SDS_P1;SDS_P2;PMS_P1;PMS_P2;Temp;Humidity;BMP_temperature;BMP_pressure;BME280_temperature;BME280_humidity;BME280_pressure;Samples;Min_cycle;Max_cycle;Signal;HPM_P1;HPM_P2
2023/10/07 00:01:52;;;;;;;0.10;0.10;;;15.60;99.90;;;;;;5073537;28;20483;-89
2023/10/07 00:04:18;;;;;;;0.10;0.10;;;15.60;99.90;;;;;;5079021;28;20231;-88
2023/10/07 00:06:45;;;;;;;0.10;0.10;;;15.50;99.90;;;;;;5081621;28;20854;-88
2023/10/07 00:09:12;;;;;;;0.10;0.10;;;15.40;99.90;;;;;;5067233;28;20188;-90
2023/10/07 00:11:38;;;;;;;0.10;0.10;;;15.40;99.90;;;;;;5081314;28;20503;-89
2023/10/07 00:14:09;;;;;;;0.10;0.10;;;15.40;99.90;;;;;;5085039;28;20529;-90
2023/10/07 00:16:36;;;;;;;0.10;0.10;;;15.40;99.90;;;;;;5083210;28;20191;-89
2023/10/07 00:19:03;;;;;;;0.10;0.10;;;15.30;99.90;;;;;;5079808;28;20435;-90
2023/10/07 00:21:52;;;;;;;0.10;0.10;;;15.30;99.90;;;;;;5089222;28;20518;-89
2023/10/07 00:24:16;;;;;;;0.10;0.10;;;15.30;99.90;;;;;;5086127;28;20521;-89
2023/10/07 00:26:43;;;;;;;0.10;0.10;;;15.30;99.90;;;;;;5087892;28;20434;-87
2023/10/07 00:29:12;;;;;;;0.10;0.10;;;15.20;99.90;;;;;;5088703;28;20794;-90
2023/10/07 00:31:40;;;;;;;0.10;0.10;;;15.20;99.90;;;;;;5088794;28;20868;-88
2023/10/07 00:34:13;;;;;;;0.10;0.10;;;15.20;99.90;;;;;;5093366;28;20415;-88
2023/10/07 00:39:07;;;;;;;0.10;0.10;;;15.10;99.90;;;;;;5089052;28;20427;-90
2023/10/07 00:41:39;;;;;;;0.10;0.10;;;15.10;99.90;;;;;;5092917;28;20606;-90
2023/10/07 00:44:17;;;;;;;0.10;0.10;;;15.10;99.90;;;;;;5093425;28;20979;-89
2023/10/07 00:46:47;;;;;;;0.10;0.10;;;15.10;99.90;;;;;;5092427;28;20447;-89
2023/10/07 00:49:22;;;;;;;0.10;0.10;;;15.00;99.90;;;;;;5092341;28;20522;-89
2023/10/07 00:51:49;;;;;;;0.10;0.10;;;15.00;99.90;;;;;;5093373;28;20518;-89
2023/10/07 00:54:30;;;;;;;0.10;0.10;;;15.00;99.90;;;;;;5074551;28;20803;-89
2023/10/07 00:57:10;;;;;;;0.10;0.10;;;15.00;99.90;;;;;;5088236;28;20422;-90
2023/10/07 00:59:41;;;;;;;0.10;0.10;;;15.00;99.90;;;;;;5072069;28;20476;-90
2023/10/07 01:02:15;;;;;;;0.10;0.10;;;15.00;99.90;;;;;;5068578;28;20608;-89
2023/10/07 01:04:40;;;;;;;0.10;0.10;;;15.00;99.90;;;;;;5084720;28;20533;-90
2023/10/07 01:07:19;;;;;;;0.10;0.10;;;14.90;99.90;;;;;;5087847;28;20909;-88
2023/10/07 01:09:59;;;;;;;0.10;0.10;;;14.90;99.90;;;;;;5091614;28;20186;-91
2023/10/07 01:12:25;;;;;;;0.10;0.10;;;15.00;99.90;;;;;;5091091;28;20965;-88
2023/10/07 01:14:52;;;;;;;0.10;0.10;;;14.90;99.90;;;;;;5081907;28;20514;-90
2023/10/07 01:17:30;;;;;;;0.10;0.10;;;14.90;99.90;;;;;;5089770;28;20449;-89
2023/10/07 01:19:56;;;;;;;0.10;0.10;;;14.90;99.90;;;;;;5083742;28;20976;-90
2023/10/07 01:22:35;;;;;;;0.10;0.10;;;14.80;99.90;;;;;;5066390;28;20546;-90
2023/10/07 01:25:06;;;;;;;0.10;0.10;;;14.90;99.90;;;;;;5088614;28;20173;-89
2023/10/07 01:27:35;;;;;;;0.10;0.10;;;14.80;99.90;;;;;;5087121;28;20445;-88
2023/10/07 01:30:13;;;;;;;0.10;0.10;;;14.80;99.90;;;;;;5092406;28;20546;-87
2023/10/07 01:32:48;;;;;;;0.10;0.10;;;14.80;99.90;;;;;;5092256;28;20447;-87
2023/10/07 01:35:24;;;;;;;0.10;0.10;;;14.70;99.90;;;;;;5067382;28;20455;-88
2023/10/07 01:37:59;;;;;;;0.10;0.10;;;14.70;99.90;;;;;;5081111;28;20447;-91
2023/10/07 01:40:44;;;;;;;0.10;0.10;;;14.70;99.90;;;;;;5086708;28;20487;-91
2023/10/07 01:43:09;;;;;;;0.10;0.10;;;14.70;99.90;;;;;;5066087;28;20489;-87
2023/10/07 01:45:39;;;;;;;0.10;0.10;;;14.70;99.90;;;;;;5060258;28;20474;-87
2023/10/07 01:48:07;;;;;;;0.10;0.10;;;14.60;99.90;;;;;;5077624;28;20178;-90
2023/10/07 01:50:47;;;;;;;0.10;0.10;;;14.60;99.90;;;;;;5072377;28;20478;-91
2023/10/07 01:53:14;;;;;;;0.10;0.10;;;14.60;99.90;;;;;;5085977;28;20436;-88
2023/10/07 01:55:44;;;;;;;0.10;0.10;;;14.50;99.90;;;;;;5080845;28;20406;-94
2023/10/07 01:58:13;;;;;;;0.10;0.10;;;14.60;99.90;;;;;;5082598;28;20931;-90
2023/10/07 02:00:44;;;;;;;0.10;0.10;;;14.50;99.90;;;;;;5081919;28;20519;-90
2023/10/07 02:03:16;;;;;;;0.10;0.10;;;14.50;99.90;;;;;;5086518;28;20496;-90
2023/10/07 02:05:47;;;;;;;0.10;0.10;;;14.50;99.90;;;;;;5091212;28;20458;-91
2023/10/07 02:08:20;;;;;;;0.10;0.10;;;14.50;99.90;;;;;;5081648;28;20850;-92
2023/10/07 02:10:47;;;;;;;0.10;0.10;;;14.50;99.90;;;;;;5079697;28;21072;-90
2023/10/07 02:13:19;;;;;;;0.10;0.10;;;14.50;99.90;;;;;;5070096;28;20466;-88
2023/10/07 02:15:48;;;;;;;0.10;0.10;;;14.40;99.90;;;;;;5085389;28;20483;-88
2023/10/07 02:18:17;;;;;;;0.10;0.10;;;14.40;99.90;;;;;;5076032;28;20436;-88
2023/10/07 02:20:52;;;;;;;0.10;0.10;;;14.40;99.90;;;;;;5087992;28;20489;-90
2023/10/07 02:23:37;;;;;;;0.10;0.10;;;14.40;99.90;;;;;;5091631;28;20450;-88
2023/10/07 02:26:05;;;;;;;0.10;0.10;;;14.40;99.90;;;;;;5074093;28;21033;-92
2023/10/07 02:28:34;;;;;;;0.10;0.10;;;14.40;99.90;;;;;;5071379;28;20948;-90
2023/10/07 02:31:07;;;;;;;0.10;0.10;;;14.40;99.90;;;;;;5062216;28;20419;-91
2023/10/07 02:33:44;;;;;;;0.10;0.10;;;14.40;99.90;;;;;;5074921;28;20829;-88
2023/10/07 02:36:12;;;;;;;0.10;0.10;;;14.40;99.90;;;;;;5090503;28;20423;-92
2023/10/07 02:38:41;;;;;;;0.10;0.10;;;14.40;99.90;;;;;;5088083;28;20458;-91
2023/10/07 02:41:17;;;;;;;0.10;0.10;;;14.40;99.90;;;;;;5093735;28;20470;-91
2023/10/07 02:43:48;;;;;;;0.10;0.10;;;14.40;99.90;;;;;;5092860;28;20941;-92
2023/10/07 02:46:32;;;;;;;0.10;0.10;;;14.30;99.90;;;;;;5092129;28;20439;-92
2023/10/07 02:49:05;;;;;;;0.10;0.10;;;14.30;99.90;;;;;;5093034;28;20962;-93
2023/10/07 02:51:37;;;;;;;0.10;0.10;;;14.30;99.90;;;;;;5088451;28;20447;-90
2023/10/07 02:54:07;;;;;;;0.10;0.10;;;14.30;99.90;;;;;;5073669;28;20443;-92
2023/10/07 02:56:44;;;;;;;0.10;0.10;;;14.30;99.90;;;;;;5085097;28;20483;-91
2023/10/07 02:59:28;;;;;;;0.10;0.10;;;14.30;99.90;;;;;;5083547;28;20546;-90
2023/10/07 03:02:12;;;;;;;0.10;0.10;;;14.30;99.90;;;;;;5088522;28;20498;-90
2023/10/07 03:04:42;;;;;;;0.10;0.10;;;14.20;99.90;;;;;;5058992;28;20439;-91
2023/10/07 03:07:14;;;;;;;0.10;0.10;;;14.20;99.90;;;;;;5086826;28;20487;-92
2023/10/07 03:10:04;;;;;;;0.10;0.10;;;14.20;99.90;;;;;;5058821;28;20439;-91
2023/10/07 03:12:30;;;;;;;0.10;0.10;;;14.20;99.90;;;;;;5080461;28;20450;-91
2023/10/07 03:15:00;;;;;;;0.10;0.10;;;14.20;99.90;;;;;;5078098;28;20434;-92
2023/10/07 03:17:39;;;;;;;0.10;0.10;;;14.20;99.90;;;;;;5077346;28;20447;-93
2023/10/07 03:20:28;;;;;;;0.10;0.10;;;14.20;99.90;;;;;;5088702;28;20536;-91
2023/10/07 03:26:18;;;;;;;0.10;0.10;;;14.10;99.90;;;;;;5080672;28;20938;-93
2023/10/07 03:28:34;;;;;;;0.10;0.10;;;14.10;99.90;;;;;;5072927;28;20453;-95
2023/10/07 03:31:00;;;;;;;0.10;0.10;;;14.10;99.90;;;;;;5090003;28;20443;-92
2023/10/07 03:38:25;;;;;;;0.10;0.10;;;14.10;99.90;;;;;;5087031;28;20438;-93
2023/10/07 03:40:54;;;;;;;0.10;0.10;;;14.10;99.90;;;;;;5092456;28;20212;-92
2023/10/07 03:43:26;;;;;;;0.10;0.10;;;14.10;99.90;;;;;;5084288;28;20436;-91
2023/10/07 03:45:55;;;;;;;0.10;0.10;;;14.10;99.90;;;;;;5080613;28;20504;-93
2023/10/07 03:48:23;;;;;;;0.10;0.10;;;14.00;99.90;;;;;;5087638;28;20490;-91
2023/10/07 03:51:04;;;;;;;0.10;0.10;;;14.00;99.90;;;;;;5055477;28;20452;-89
2023/10/07 03:53:31;;;;;;;0.10;0.10;;;14.00;99.90;;;;;;5060950;28;20440;-91
2023/10/07 03:56:01;;;;;;;0.10;0.10;;;14.00;99.90;;;;;;5089901;28;20927;-92
2023/10/07 03:58:28;;;;;;;0.10;0.10;;;14.00;99.90;;;;;;5086609;28;20526;-93
2023/10/07 04:00:55;;;;;;;0.10;0.10;;;14.00;99.90;;;;;;5065527;28;21430;-91
2023/10/07 04:03:23;;;;;;;0.10;0.10;;;14.00;99.90;;;;;;5063586;28;20431;-89
2023/10/07 04:05:50;;;;;;;0.10;0.10;;;14.00;99.90;;;;;;5085491;28;20815;-91
2023/10/07 04:08:18;;;;;;;0.10;0.10;;;14.00;99.90;;;;;;5080879;28;20462;-91
2023/10/07 04:10:45;;;;;;;0.10;0.10;;;14.00;99.90;;;;;;5078298;28;20448;-91
2023/10/07 04:13:24;;;;;;;0.10;0.10;;;14.00;99.90;;;;;;5065671;28;20520;-93
2023/10/07 04:15:53;;;;;;;0.10;0.10;;;13.90;99.90;;;;;;5083876;28;20427;-91
2023/10/07 04:18:34;;;;;;;0.10;0.10;;;13.90;99.90;;;;;;5089382;28;20491;-90
2023/10/07 04:21:01;;;;;;;0.10;0.10;;;13.90;99.90;;;;;;5091356;28;20482;-92
2023/10/07 04:23:26;;;;;;;0.10;0.10;;;13.90;99.90;;;;;;5091439;28;20439;-91
2023/10/07 04:25:56;;;;;;;0.10;0.10;;;13.90;99.90;;;;;;5072970;28;20423;-91
2023/10/07 04:28:28;;;;;;;0.10;0.10;;;13.90;99.90;;;;;;5091524;28;20203;-92
2023/10/07 04:30:53;;;;;;;0.10;0.10;;;13.90;99.90;;;;;;5091286;28;20427;-90
2023/10/07 04:33:25;;;;;;;0.10;0.10;;;13.80;99.90;;;;;;5091511;28;20427;-92
2023/10/07 04:35:53;;;;;;;0.10;0.10;;;13.80;99.90;;;;;;5079471;28;20189;-90
2023/10/07 04:46:22;;;;;;;0.10;0.10;;;13.80;99.90;;;;;;5087053;28;20443;-92
2023/10/07 04:48:56;;;;;;;0.10;0.10;;;13.80;99.90;;;;;;5065307;28;20414;-92
2023/10/07 04:54:01;;;;;;;0.10;0.10;;;13.70;99.90;;;;;;5087318;28;20443;-92
2023/10/07 04:56:27;;;;;;;0.10;0.10;;;13.70;99.90;;;;;;5072749;28;20431;-93
2023/10/07 04:58:53;;;;;;;0.10;0.10;;;13.70;99.90;;;;;;5073075;28;20435;-92
2023/10/07 05:01:31;;;;;;;0.10;0.10;;;13.60;99.90;;;;;;5086324;28;20560;-92
2023/10/07 05:04:09;;;;;;;0.10;0.10;;;13.60;99.90;;;;;;5072274;28;20472;-92
2023/10/07 05:06:36;;;;;;;0.10;0.10;;;13.60;99.90;;;;;;5072833;28;20430;-91
2023/10/07 05:09:18;;;;;;;0.10;0.10;;;13.60;99.90;;;;;;5089053;28;20568;-91
2023/10/07 05:11:45;;;;;;;0.10;0.10;;;13.60;99.90;;;;;;5086564;28;20451;-92
2023/10/07 05:14:15;;;;;;;0.10;0.10;;;13.60;99.90;;;;;;5085435;28;20432;-93
2023/10/07 05:16:40;;;;;;;0.10;0.10;;;13.60;99.90;;;;;;5088769;28;20455;-92
2023/10/07 05:19:09;;;;;;;0.10;0.10;;;13.60;99.90;;;;;;5076729;28;20793;-92
2023/10/07 05:21:37;;;;;;;0.10;0.10;;;13.60;99.90;;;;;;5086379;28;20318;-93
2023/10/07 05:24:04;;;;;;;0.10;0.10;;;13.60;99.90;;;;;;5077908;28;20488;-92
2023/10/07 05:26:31;;;;;;;0.10;0.10;;;13.50;99.90;;;;;;5085843;28;20483;-92
2023/10/07 05:29:01;;;;;;;0.10;0.10;;;13.50;99.90;;;;;;5085596;28;20455;-90
2023/10/07 05:31:30;;;;;;;0.10;0.10;;;13.50;99.90;;;;;;5088723;28;20478;-90
2023/10/07 05:33:58;;;;;;;0.10;0.10;;;13.50;99.90;;;;;;5080233;28;20476;-91
2023/10/07 05:36:29;;;;;;;0.10;0.10;;;13.50;99.90;;;;;;5080768;28;20475;-93
2023/10/07 05:38:55;;;;;;;0.10;0.10;;;13.50;99.90;;;;;;5094266;28;20445;-91
2023/10/07 05:41:25;;;;;;;0.10;0.10;;;13.50;99.90;;;;;;5093711;28;20567;-93
2023/10/07 05:43:51;;;;;;;0.10;0.10;;;13.50;99.90;;;;;;5070675;28;20527;-93
2023/10/07 05:46:17;;;;;;;0.10;0.10;;;13.50;99.90;;;;;;5067446;28;20436;-93
2023/10/07 05:48:43;;;;;;;0.10;0.10;;;13.50;99.90;;;;;;5065846;28;20447;-93
2023/10/07 05:51:09;;;;;;;0.10;0.10;;;13.50;99.90;;;;;;5075901;28;20542;-93
2023/10/07 05:53:40;;;;;;;0.10;0.10;;;13.50;99.90;;;;;;5094235;28;20653;-93
2023/10/07 05:56:06;;;;;;;0.10;0.10;;;13.40;99.90;;;;;;5083299;28;20503;-93
2023/10/07 05:58:33;;;;;;;0.10;0.10;;;13.40;99.90;;;;;;5072934;28;20547;-93
2023/10/07 06:01:00;;;;;;;0.10;0.10;;;13.40;99.90;;;;;;5062498;28;20484;-91
2023/10/07 06:03:26;;;;;;;0.10;0.10;;;13.40;99.90;;;;;;5085962;28;20439;-93
2023/10/07 06:05:52;;;;;;;0.10;0.10;;;13.40;99.90;;;;;;5072186;28;20951;-92
2023/10/07 06:08:18;;;;;;;0.10;0.10;;;13.40;99.90;;;;;;5086764;28;20444;-93
2023/10/07 06:10:51;;;;;;;0.10;0.10;;;13.40;99.90;;;;;;5094035;28;20442;-92
2023/10/07 06:13:18;;;;;;;0.10;0.10;;;13.40;99.90;;;;;;5087921;28;20539;-92
2023/10/07 06:15:45;;;;;;;0.10;0.10;;;13.40;99.90;;;;;;5063677;28;20448;-94
2023/10/07 06:18:11;;;;;;;0.10;0.10;;;13.30;99.90;;;;;;5085879;28;20446;-93
2023/10/07 06:20:46;;;;;;;0.10;0.10;;;13.40;99.90;;;;;;5085788;28;20476;-94
2023/10/07 06:23:15;;;;;;;0.10;0.10;;;13.30;99.90;;;;;;5093349;28;20173;-92
2023/10/07 06:25:49;;;;;;;0.10;0.10;;;13.40;99.90;;;;;;5059801;28;20821;-92
2023/10/07 06:31:00;;;;;;;0.10;0.10;;;13.30;99.90;;;;;;5090233;28;20906;-89
2023/10/07 06:33:26;;;;;;;0.10;0.10;;;13.20;99.90;;;;;;5093165;28;20470;-90
2023/10/07 06:35:53;;;;;;;0.10;0.10;;;13.20;99.90;;;;;;5071400;28;20516;-89
2023/10/07 06:38:19;;;;;;;0.10;0.10;;;13.10;99.90;;;;;;5089237;28;20443;-89
2023/10/07 06:40:45;;;;;;;0.10;0.10;;;13.00;99.90;;;;;;5095104;28;20475;-92
2023/10/07 06:43:14;;;;;;;0.10;0.10;;;13.00;99.90;;;;;;5094406;28;20430;-92
2023/10/07 06:45:44;;;;;;;0.10;0.10;;;13.00;99.90;;;;;;5095373;28;20537;-92
2023/10/07 06:48:11;;;;;;;0.17;0.17;;;13.00;99.90;;;;;;5094789;28;20427;-92
2023/10/07 06:50:41;;;;;;;0.10;0.10;;;13.00;99.90;;;;;;5093733;28;20522;-90
2023/10/07 06:53:11;;;;;;;0.10;0.10;;;13.00;99.90;;;;;;5061615;28;20523;-92
2023/10/07 06:55:41;;;;;;;0.10;0.10;;;13.00;99.90;;;;;;5091796;28;20489;-92
2023/10/07 06:58:07;;;;;;;0.20;0.20;;;13.00;99.90;;;;;;5074550;28;20435;-93
2023/10/07 07:00:47;;;;;;;0.10;0.10;;;13.00;99.90;;;;;;5089081;28;20739;-87
2023/10/07 07:03:13;;;;;;;0.10;0.10;;;12.90;99.90;;;;;;5059249;28;20189;-87
2023/10/07 07:05:40;;;;;;;0.10;0.10;;;13.00;99.90;;;;;;5074755;28;20456;-91
2023/10/07 07:08:09;;;;;;;0.10;0.10;;;13.00;99.90;;;;;;5080090;28;20475;-92
2023/10/07 07:10:36;;;;;;;0.10;0.10;;;13.00;99.90;;;;;;5082120;28;20482;-90
2023/10/07 07:13:12;;;;;;;0.10;0.10;;;13.00;99.90;;;;;;5082563;28;20438;-87
2023/10/07 07:15:41;;;;;;;0.10;0.10;;;13.00;99.90;;;;;;5064105;28;20443;-87
2023/10/07 07:20:49;;;;;;;0.10;0.10;;;13.00;99.90;;;;;;5081909;28;20490;-89
2023/10/07 07:23:16;;;;;;;0.10;0.10;;;13.00;99.90;;;;;;5092472;28;20438;-87
2023/10/07 07:25:49;;;;;;;0.10;0.10;;;12.90;99.90;;;;;;5093677;28;20420;-91
2023/10/07 07:28:16;;;;;;;0.10;0.10;;;13.00;99.90;;;;;;5068189;28;20439;-88
2023/10/07 07:30:43;;;;;;;0.20;0.20;;;13.10;99.90;;;;;;5074276;28;21126;-88
2023/10/07 07:33:11;;;;;;;0.10;0.10;;;13.10;99.90;;;;;;5070489;28;20442;-89
2023/10/07 07:35:39;;;;;;;0.10;0.10;;;13.10;99.90;;;;;;5054375;28;20432;-89
2023/10/07 07:41:09;;;;;;;0.10;0.10;;;13.10;99.90;;;;;;5073839;28;20481;-90
2023/10/07 07:43:37;;;;;;;0.10;0.10;;;13.10;99.90;;;;;;5077807;28;20524;-88
2023/10/07 07:46:26;;;;;;;0.10;0.10;;;13.10;99.90;;;;;;5087129;28;20850;-90
2023/10/07 07:48:53;;;;;;;0.20;0.20;;;13.10;99.90;;;;;;5080658;28;20450;-91
2023/10/07 07:51:24;;;;;;;0.10;0.10;;;13.20;99.90;;;;;;5063772;28;20442;-88
2023/10/07 07:53:50;;;;;;;0.10;0.10;;;13.10;99.90;;;;;;5071652;28;20428;-90
2023/10/07 07:56:17;;;;;;;0.10;0.10;;;13.20;99.90;;;;;;5069253;28;20446;-90
2023/10/07 07:58:47;;;;;;;0.10;0.10;;;13.20;99.90;;;;;;5089443;28;20575;-89
2023/10/07 08:01:15;;;;;;;0.10;0.10;;;13.20;99.90;;;;;;5089046;28;20482;-89
2023/10/07 08:03:42;;;;;;;0.10;0.10;;;13.30;99.90;;;;;;5090767;28;20443;-88
2023/10/07 08:06:12;;;;;;;0.10;0.10;;;13.30;99.90;;;;;;5071040;28;20450;-90
2023/10/07 08:08:38;;;;;;;0.10;0.10;;;13.20;99.90;;;;;;5090649;28;20184;-91
2023/10/07 08:11:05;;;;;;;0.10;0.10;;;13.30;99.90;;;;;;5088187;28;20514;-90
2023/10/07 08:13:31;;;;;;;0.10;0.10;;;13.30;99.90;;;;;;5090261;28;20173;-90
2023/10/07 08:16:04;;;;;;;0.10;0.10;;;13.30;99.90;;;;;;5087068;28;20854;-91
2023/10/07 08:18:29;;;;;;;0.10;0.10;;;13.30;99.90;;;;;;5084874;28;20269;-90
2023/10/07 08:21:07;;;;;;;0.10;0.10;;;13.30;99.90;;;;;;5079948;28;20578;-90
2023/10/07 08:23:40;;;;;;;0.10;0.10;;;13.20;99.90;;;;;;5088296;28;20181;-92
2023/10/07 08:26:09;;;;;;;0.20;0.20;;;13.30;99.90;;;;;;5069660;28;20500;-91
2023/10/07 08:28:46;;;;;;;0.10;0.10;;;13.30;99.90;;;;;;5090247;28;20431;-92
2023/10/07 08:31:37;;;;;;;0.10;0.10;;;13.40;99.90;;;;;;5083252;28;20474;-90
2023/10/07 08:36:36;;;;;;;0.10;0.10;;;13.40;99.90;;;;;;5089111;28;20466;-91
2023/10/07 08:39:05;;;;;;;0.10;0.10;;;13.50;99.90;;;;;;5087032;28;20323;-91
2023/10/07 08:41:31;;;;;;;0.10;0.10;;;13.50;99.90;;;;;;5084719;28;20578;-89
2023/10/07 08:44:17;;;;;;;0.10;0.10;;;13.40;99.90;;;;;;5089335;28;20959;-90
2023/10/07 08:46:52;;;;;;;0.10;0.10;;;13.50;99.90;;;;;;5086133;28;20181;-88
2023/10/07 08:49:26;;;;;;;0.10;0.10;;;13.40;99.90;;;;;;5088181;28;21056;-89
2023/10/07 08:51:59;;;;;;;0.10;0.10;;;13.60;99.90;;;;;;5070746;28;20443;-88
2023/10/07 08:54:37;;;;;;;0.10;0.10;;;13.60;99.90;;;;;;5073292;28;20568;-88
2023/10/07 08:57:19;;;;;;;0.10;0.10;;;13.60;99.90;;;;;;5086106;28;20479;-89
2023/10/07 08:59:56;;;;;;;0.10;0.10;;;13.60;99.90;;;;;;5089466;28;20553;-90
2023/10/07 09:02:27;;;;;;;0.10;0.10;;;13.80;99.90;;;;;;5074041;28;20496;-88
2023/10/07 09:04:57;;;;;;;0.10;0.10;;;13.60;99.90;;;;;;5090743;28;20427;-88
2023/10/07 09:07:30;;;;;;;0.10;0.10;;;13.70;99.90;;;;;;5076998;28;20585;-89
2023/10/07 09:10:10;;;;;;;0.10;0.10;;;13.60;99.90;;;;;;5080671;28;20420;-88
2023/10/07 09:12:39;;;;;;;0.10;0.10;;;13.50;99.90;;;;;;5083845;28;20418;-90
2023/10/07 09:15:12;;;;;;;0.10;0.10;;;13.70;99.90;;;;;;5090874;28;20439;-88
2023/10/07 09:17:41;;;;;;;0.10;0.10;;;13.70;99.90;;;;;;5088370;28;20419;-88
2023/10/07 09:20:17;;;;;;;0.10;0.10;;;13.80;99.90;;;;;;5092806;28;20462;-88
2023/10/07 09:22:47;;;;;;;0.10;0.10;;;13.80;99.90;;;;;;5092218;28;20419;-87
2023/10/07 09:25:17;;;;;;;0.10;0.10;;;13.80;99.90;;;;;;5089657;28;20486;-87
2023/10/07 09:27:54;;;;;;;0.10;0.10;;;13.80;99.90;;;;;;5091398;28;20526;-86
2023/10/07 09:31:05;;;;;;;0.10;0.10;;;13.80;99.90;;;;;;5091831;28;20507;-87
2023/10/07 09:33:13;;;;;;;0.10;0.10;;;13.50;99.90;;;;;;5071583;28;21101;-88
2023/10/07 09:35:43;;;;;;;0.10;0.10;;;13.60;99.90;;;;;;5085152;28;20438;-89
2023/10/07 09:38:33;;;;;;;0.10;0.10;;;13.50;99.90;;;;;;5079709;28;20784;-87
2023/10/07 09:41:12;;;;;;;0.10;0.10;;;13.40;99.90;;;;;;5086421;28;20472;-87
2023/10/07 09:43:51;;;;;;;0.10;0.10;;;13.40;99.90;;;;;;5092086;28;21051;-89
2023/10/07 09:46:24;;;;;;;0.10;0.10;;;13.30;99.90;;;;;;5089346;28;20946;-88
2023/10/07 09:48:51;;;;;;;0.10;0.10;;;13.50;99.90;;;;;;5082216;28;20428;-89
2023/10/07 09:51:28;;;;;;;0.10;0.10;;;13.40;99.90;;;;;;5058414;28;20435;-89
2023/10/07 09:54:22;;;;;;;0.10;0.10;;;13.50;99.90;;;;;;5091908;28;20425;-88
2023/10/07 09:57:06;;;;;;;0.10;0.10;;;13.50;99.90;;;;;;5087770;28;20427;-88
2023/10/07 09:59:56;;;;;;;0.10;0.10;;;13.50;99.90;;;;;;5071814;28;20474;-90
2023/10/07 10:02:59;;;;;;;0.10;0.10;;;13.60;99.90;;;;;;5054250;28;21011;-89
2023/10/07 10:05:40;;;;;;;0.10;0.10;;;13.60;99.90;;;;;;5072120;28;20502;-90
2023/10/07 10:08:44;;;;;;;0.10;0.10;;;13.70;99.90;;;;;;5087369;28;20443;-89
2023/10/07 10:11:46;;;;;;;0.10;0.10;;;13.70;99.90;;;;;;5076665;28;20513;-89
2023/10/07 10:16:48;;;;;;;0.10;0.10;;;13.70;99.90;;;;;;5084516;28;20435;-89
2023/10/07 10:19:25;;;;;;;0.10;0.10;;;13.60;99.90;;;;;;5062288;28;20450;-91
2023/10/07 10:21:52;;;;;;;0.10;0.10;;;13.70;99.90;;;;;;5089670;28;20463;-91
2023/10/07 10:24:22;;;;;;;0.10;0.10;;;13.70;99.90;;;;;;5089183;28;20454;-88
2023/10/07 10:27:02;;;;;;;0.10;0.10;;;13.60;99.90;;;;;;5091504;28;20538;-93
2023/10/07 10:29:31;;;;;;;0.10;0.10;;;13.80;99.90;;;;;;5076220;28;20431;-95
2023/10/07 10:32:02;;;;;;;0.10;0.10;;;13.70;99.90;;;;;;5074263;28;20817;-91
2023/10/07 10:34:29;;;;;;;0.10;0.10;;;13.90;99.90;;;;;;5093311;28;20419;-91
2023/10/07 10:36:57;;;;;;;0.10;0.10;;;13.90;99.90;;;;;;5073605;28;20503;-90
2023/10/07 10:39:25;;;;;;;0.10;0.10;;;13.70;99.90;;;;;;5057285;28;20479;-95
2023/10/07 10:41:53;;;;;;;0.10;0.10;;;13.90;99.90;;;;;;5090394;28;20483;-94
2023/10/07 10:44:20;;;;;;;0.10;0.10;;;13.80;99.90;;;;;;5092733;28;20967;-91
2023/10/07 10:46:49;;;;;;;0.10;0.10;;;13.60;99.90;;;;;;5091512;28;20435;-92
2023/10/07 10:49:17;;;;;;;0.10;0.10;;;13.50;99.90;;;;;;5088601;28;20438;-91
2023/10/07 10:51:45;;;;;;;0.10;0.10;;;13.60;99.90;;;;;;5092156;28;20439;-93
2023/10/07 10:54:23;;;;;;;0.10;0.10;;;13.60;99.90;;;;;;5091405;28;20431;-91
2023/10/07 10:56:58;;;;;;;0.10;0.10;;;13.60;99.90;;;;;;5092491;28;20470;-93
2023/10/07 10:59:43;;;;;;;0.10;0.10;;;13.70;99.90;;;;;;5066762;28;20555;-93
2023/10/07 11:02:09;;;;;;;0.10;0.10;;;13.70;99.90;;;;;;5084394;28;21030;-95
2023/10/07 11:04:35;;;;;;;0.10;0.10;;;13.70;99.90;;;;;;5085075;28;20431;-91
2023/10/07 11:07:04;;;;;;;0.10;0.10;;;13.60;99.90;;;;;;5093478;28;20435;-90
2023/10/07 11:09:37;;;;;;;0.10;0.10;;;13.70;99.90;;;;;;5072532;28;20562;-91
2023/10/07 11:12:09;;;;;;;0.10;0.10;;;13.60;99.90;;;;;;5068214;28;20439;-90
2023/10/07 11:14:36;;;;;;;0.10;0.10;;;13.60;99.90;;;;;;5070544;28;20435;-91
2023/10/07 11:17:03;;;;;;;0.10;0.10;;;13.60;99.90;;;;;;5072445;28;20427;-91
2023/10/07 11:19:30;;;;;;;0.10;0.10;;;13.70;99.90;;;;;;5073882;28;20435;-90
2023/10/07 11:21:56;;;;;;;0.10;0.10;;;13.50;99.90;;;;;;5075584;28;20994;-92
2023/10/07 11:24:26;;;;;;;0.10;0.10;;;13.60;99.90;;;;;;5085978;28;20934;-91
2023/10/07 11:26:56;;;;;;;0.10;0.10;;;13.60;99.90;;;;;;5084012;28;20428;-92
2023/10/07 11:29:22;;;;;;;0.10;0.10;;;13.60;99.90;;;;;;5055692;28;20435;-91
2023/10/07 11:31:58;;;;;;;0.10;0.10;;;13.60;99.90;;;;;;5066760;28;20444;-92
2023/10/07 11:34:32;;;;;;;0.10;0.10;;;13.50;99.90;;;;;;5080063;28;20457;-91
2023/10/07 11:37:14;;;;;;;0.10;0.10;;;13.30;99.90;;;;;;5073706;28;20776;-90
2023/10/07 11:39:45;;;;;;;0.10;0.10;;;13.30;99.90;;;;;;5090285;28;20544;-93
2023/10/07 11:42:12;;;;;;;0.10;0.10;;;13.30;99.90;;;;;;5067984;28;20916;-95
2023/10/07 11:44:39;;;;;;;0.10;0.10;;;13.40;99.90;;;;;;5070718;28;20487;-92
2023/10/07 11:47:06;;;;;;;0.10;0.10;;;13.40;99.90;;;;;;5090320;28;20434;-94
2023/10/07 11:49:34;;;;;;;0.10;0.10;;;13.50;99.90;;;;;;5093514;28;20403;-94
2023/10/07 11:52:02;;;;;;;0.10;0.10;;;13.50;99.90;;;;;;5083592;28;20443;-89
2023/10/07 11:54:29;;;;;;;0.10;0.10;;;13.50;99.90;;;;;;5074332;28;20431;-92
2023/10/07 11:56:55;;;;;;;0.10;0.10;;;13.60;99.90;;;;;;5074125;28;20431;-92
2023/10/07 11:59:20;;;;;;;0.10;0.10;;;13.70;99.90;;;;;;5088160;28;20458;-91
2023/10/07 12:01:47;;;;;;;0.10;0.10;;;13.60;99.90;;;;;;5086889;28;20742;-91
2023/10/07 12:04:13;;;;;;;0.10;0.10;;;13.60;99.90;;;;;;5074316;28;20177;-91
2023/10/07 12:06:38;;;;;;;0.10;0.10;;;13.30;99.90;;;;;;5059935;28;20463;-92
2023/10/07 12:09:06;;;;;;;0.10;0.10;;;13.30;99.90;;;;;;5062925;28;20257;-91
2023/10/07 12:11:32;;;;;;;0.10;0.10;;;13.10;99.90;;;;;;5091990;28;20177;-92
2023/10/07 12:13:58;;;;;;;0.10;0.10;;;13.00;99.90;;;;;;5056984;28;20578;-94
2023/10/07 12:16:23;;;;;;;0.10;0.10;;;13.00;99.90;;;;;;5064901;28;20177;-92
2023/10/07 12:18:50;;;;;;;0.10;0.10;;;12.90;99.90;;;;;;5089272;28;20214;-90
2023/10/07 12:21:15;;;;;;;0.10;0.10;;;12.80;99.90;;;;;;5070802;28;20215;-90
2023/10/07 12:23:43;;;;;;;0.10;0.10;;;12.90;99.90;;;;;;5087296;28;20819;-91
2023/10/07 12:26:18;;;;;;;0.10;0.10;;;12.90;99.90;;;;;;5055529;28;20720;-89
2023/10/07 12:28:44;;;;;;;0.20;0.20;;;13.00;99.90;;;;;;5069433;28;20445;-89
2023/10/07 12:31:13;;;;;;;0.10;0.10;;;13.10;99.90;;;;;;5080304;28;20435;-89
2023/10/07 12:33:39;;;;;;;0.10;0.10;;;13.00;99.90;;;;;;5074353;28;20272;-90
2023/10/07 12:36:15;;;;;;;0.10;0.10;;;13.10;99.90;;;;;;5069341;28;20509;-91
2023/10/07 12:38:41;;;;;;;0.10;0.10;;;13.10;99.90;;;;;;5075958;28;20853;-92
2023/10/07 12:41:08;;;;;;;0.10;0.10;;;13.10;99.90;;;;;;5079653;28;20459;-92
2023/10/07 12:43:34;;;;;;;0.10;0.10;;;13.10;99.90;;;;;;5084522;28;20445;-90
2023/10/07 12:46:03;;;;;;;0.10;0.10;;;13.20;99.90;;;;;;5090170;28;20430;-90
2023/10/07 12:48:28;;;;;;;0.10;0.10;;;13.10;99.90;;;;;;5081811;28;20423;-87
2023/10/07 12:50:54;;;;;;;0.10;0.10;;;13.20;99.90;;;;;;5079849;28;20435;-90
2023/10/07 12:53:19;;;;;;;0.10;0.10;;;13.10;99.90;;;;;;5067607;28;20250;-91
2023/10/07 12:55:47;;;;;;;0.10;0.10;;;13.20;99.90;;;;;;5080466;28;20717;-89
2023/10/07 12:58:16;;;;;;;0.10;0.10;;;13.20;99.90;;;;;;5071828;28;20182;-90
2023/10/07 13:00:42;;;;;;;0.10;0.10;;;13.40;99.90;;;;;;5079103;28;20526;-92
2023/10/07 13:03:08;;;;;;;0.10;0.10;;;13.40;99.90;;;;;;5082424;28;20488;-92
2023/10/07 13:05:42;;;;;;;0.10;0.10;;;13.50;99.90;;;;;;5078815;28;20181;-92
2023/10/07 13:08:18;;;;;;;0.10;0.10;;;13.50;99.90;;;;;;5062520;28;20176;-92
2023/10/07 13:10:44;;;;;;;0.10;0.10;;;13.40;99.90;;;;;;5087050;28;20443;-96
2023/10/07 13:13:13;;;;;;;0.10;0.10;;;13.50;99.90;;;;;;5097025;28;20483;-96
2023/10/07 13:15:42;;;;;;;0.10;0.10;;;13.50;99.90;;;;;;5089958;28;20497;-96
2023/10/07 13:18:09;;;;;;;0.10;0.10;;;13.50;99.90;;;;;;5085980;28;20454;-93
2023/10/07 13:20:34;;;;;;;0.10;0.10;;;13.60;99.90;;;;;;5075957;28;20516;-95
2023/10/07 13:23:01;;;;;;;0.10;0.10;;;13.50;99.90;;;;;;5094827;28;20534;-94
2023/10/07 13:25:27;;;;;;;0.10;0.10;;;13.30;99.90;;;;;;5071196;28;20551;-95
2023/10/07 13:27:56;;;;;;;0.10;0.10;;;13.40;99.90;;;;;;5087201;28;20447;-96
2023/10/07 13:30:24;;;;;;;0.10;0.10;;;13.30;99.90;;;;;;5101976;28;20435;-96
2023/10/07 13:32:52;;;;;;;0.10;0.10;;;13.40;99.90;;;;;;5079294;28;20434;-95
2023/10/07 13:35:19;;;;;;;0.10;0.10;;;13.40;99.90;;;;;;5079390;28;20423;-96
2023/10/07 13:37:46;;;;;;;0.10;0.10;;;13.40;99.90;;;;;;5080756;28;20427;-96
2023/10/07 13:40:16;;;;;;;0.10;0.10;;;13.30;99.90;;;;;;5084609;28;20912;-95
2023/10/07 13:42:49;;;;;;;0.10;0.10;;;13.30;99.90;;;;;;5095992;28;20453;-94